< < Back
Terminal Aerodrome Forecast


Current Version              Previous Versions:   1  2  3  4  5  6  7  8  9  

Terminal Aerodrome Forecast

419
FTUS44 KMOB 301721
TAFMOB
TAF
KMOB 301721Z 3018/3118 36007KT P6SM SCT050 BKN100
      TEMPO 3022/3102 VRB15G25KT 3SM TSRA BKN030CB OVC050
     FM310200 02006KT P6SM SCT250=

Latest METAR

582
SAUS80 KWBC 301800 RRA
MTRMOB
METAR KMOB 301756Z 01010KT 10SM FEW120 SCT250 34/25 A2998 RMK AO2 SLP150
T03390250 10339 20250 58013


USA.gov is the U.S. government's official web portal to all federal, state and local government web resources and services.